Time;durP1;ratioP1;P1;durP2;ratioP2;P2;SDS_P1;SDS_P2;PMS_P1;PMS_P2;Temp;Humidity;BMP_temperature;BMP_pressure;BME280_temperature;BME280_humidity;BME280_pressure;Samples;Min_cycle;Max_cycle;Signal;HPM_P1;HPM_P2
2022/11/08 00:02:25;;;;;;;;;11.50;8.75;;;;;14.50;62.06;100321.19;5079437;28;45501;-42
2022/11/08 00:04:51;;;;;;;;;9.00;7.25;;;;;14.50;62.20;100315.03;5072631;28;45415;-43
2022/11/08 00:15:28;;;;;;;;;11.75;10.00;;;;;14.44;61.80;100295.13;5079343;28;45421;-46
2022/11/08 00:17:55;;;;;;;;;8.25;8.25;;;;;14.44;61.73;100293.34;5085053;27;48050;-42
2022/11/08 00:20:20;;;;;;;;;12.25;8.50;;;;;14.46;61.66;100293.28;5068507;28;45343;-42
2022/11/08 00:22:45;;;;;;;;;8.75;8.00;;;;;14.46;61.39;100285.38;5086858;27;45330;-43
2022/11/08 00:25:11;;;;;;;;;14.25;8.25;;;;;14.47;61.46;100279.19;5077587;27;67273;-41
2022/11/08 00:27:36;;;;;;;;;9.25;8.00;;;;;14.49;61.74;100279.13;5079480;27;55885;-42
2022/11/08 00:30:02;;;;;;;;;8.00;7.25;;;;;14.48;61.86;100275.63;5079959;28;45347;-42
2022/11/08 00:32:27;;;;;;;;;6.00;5.75;;;;;14.44;61.09;100271.44;5075560;28;45366;-42
2022/11/08 00:34:53;;;;;;;;;7.50;6.00;;;;;14.42;61.51;100263.63;5077835;28;45522;-42
2022/11/08 00:37:20;;;;;;;;;8.00;6.25;;;;;14.41;61.33;100267.19;5076013;27;45468;-44
2022/11/08 00:39:45;;;;;;;;;9.00;8.00;;;;;14.42;61.34;100260.97;5066409;28;45290;-41
2022/11/08 00:42:11;;;;;;;;;5.00;4.50;;;;;14.40;61.21;100241.78;5079048;28;45198;-42
2022/11/08 00:44:36;;;;;;;;;8.00;7.75;;;;;14.40;60.92;100235.69;5061172;28;45371;-41
2022/11/08 00:47:03;;;;;;;;;9.00;8.00;;;;;14.37;61.37;100227.94;5079300;28;46117;-43
2022/11/08 00:49:28;;;;;;;;;7.25;6.00;;;;;14.33;61.24;100223.75;5078368;28;45296;-41
2022/11/08 00:51:54;;;;;;;;;12.25;7.75;;;;;14.34;61.19;100214.91;5072981;28;45367;-42
2022/11/08 00:54:20;;;;;;;;;12.50;8.00;;;;;14.34;60.75;100207.03;5078606;28;69551;-43
2022/11/08 00:56:46;;;;;;;;;9.25;8.00;;;;;14.32;60.79;100209.72;5079931;27;45444;-46
2022/11/08 00:59:13;;;;;;;;;11.25;7.50;;;;;14.32;61.21;100203.63;5083134;27;45429;-42
2022/11/08 01:01:39;;;;;;;;;7.25;5.50;;;;;14.33;60.82;100205.34;5087243;27;45319;-41
2022/11/08 01:04:04;;;;;;;;;7.00;7.00;;;;;14.29;60.91;100209.91;5072065;27;45616;-44
2022/11/08 01:06:30;;;;;;;;;6.00;6.00;;;;;14.24;60.90;100204.88;5078819;28;45417;-42
2022/11/08 01:08:56;;;;;;;;;5.00;5.00;;;;;14.25;60.84;100210.97;5066113;28;45429;-42
2022/11/08 01:11:22;;;;;;;;;7.50;5.50;;;;;14.22;60.56;100198.84;5077702;28;45283;-42
2022/11/08 01:13:49;;;;;;;;;6.00;6.00;;;;;14.21;60.49;100198.91;5077859;27;45513;-43
2022/11/08 01:16:17;;;;;;;;;9.25;7.75;;;;;14.19;60.53;100190.25;5090011;27;45440;-44
2022/11/08 01:18:44;;;;;;;;;6.25;4.75;;;;;14.18;60.72;100196.41;5075165;27;45803;-41
2022/11/08 01:21:09;;;;;;;;;6.00;5.75;;;;;14.17;60.81;100200.00;5072654;28;45331;-41
2022/11/08 01:23:35;;;;;;;;;7.50;5.00;;;;;14.16;60.53;100198.28;5078093;28;45240;-40
2022/11/08 01:26:04;;;;;;;;;5.25;5.00;;;;;14.16;60.65;100195.66;5055966;28;46321;-44
2022/11/08 01:28:30;;;;;;;;;7.00;6.00;;;;;14.14;60.57;100185.19;5068622;27;45391;-46
2022/11/08 01:30:55;;;;;;;;;5.50;5.00;;;;;14.14;60.47;100187.84;5067799;28;45330;-43
2022/11/08 01:33:21;;;;;;;;;8.75;5.50;;;;;14.15;60.82;100183.44;5078259;27;68846;-43
2022/11/08 01:35:46;;;;;;;;;7.75;5.00;;;;;14.14;60.61;100185.19;5076944;28;73634;-46
2022/11/08 01:38:11;;;;;;;;;7.75;6.50;;;;;14.14;60.11;100185.19;5074241;27;64786;-41
2022/11/08 01:40:44;;;;;;;;;6.00;5.00;;;;;14.12;60.44;100188.84;5068447;28;45366;-43
2022/11/08 01:43:29;;;;;;;;;7.50;7.25;;;;;14.12;60.02;100194.13;5071022;28;45516;-45
2022/11/08 01:46:15;;;;;;;;;6.75;5.25;;;;;14.10;60.35;100188.09;5057599;28;46506;-46
2022/11/08 01:48:46;;;;;;;;;8.75;4.50;;;;;14.07;59.91;100182.97;5069891;28;45778;-41
2022/11/08 01:51:14;;;;;;;;;5.00;4.00;;;;;14.06;60.29;100179.50;5079070;27;45296;-43
2022/11/08 01:53:39;;;;;;;;;9.50;6.00;;;;;14.01;59.87;100168.34;5078722;28;45496;-44
2022/11/08 01:56:05;;;;;;;;;5.50;4.00;;;;;13.98;59.75;100165.88;5077641;28;66498;-43
2022/11/08 01:58:33;;;;;;;;;6.00;6.00;;;;;13.96;60.08;100160.69;5072417;28;45377;-42
2022/11/08 02:01:00;;;;;;;;;6.75;4.75;;;;;13.96;59.63;100159.84;5082439;28;45497;-43
2022/11/08 02:03:28;;;;;;;;;6.25;5.00;;;;;13.96;59.79;100162.47;5073063;27;45292;-42
2022/11/08 02:05:54;;;;;;;;;4.75;4.75;;;;;13.94;60.02;100157.28;5082021;27;46425;-44
2022/11/08 02:08:38;;;;;;;;;8.00;5.50;;;;;13.94;60.08;100157.28;5079073;28;45316;-45
2022/11/08 02:11:05;;;;;;;;;7.75;4.00;;;;;13.91;60.21;100152.16;5071112;28;45252;-44
2022/11/08 02:13:32;;;;;;;;;6.25;5.25;;;;;13.92;60.24;100153.88;5081090;27;45281;-48
2022/11/08 02:15:58;;;;;;;;;2.75;2.75;;;;;13.91;60.04;100149.53;5089529;27;46186;-44
2022/11/08 02:18:27;;;;;;;;;6.50;4.25;;;;;13.93;59.97;100138.94;5080960;27;57424;-45
2022/11/08 02:21:12;;;;;;;;;10.50;6.00;;;;;13.90;59.74;100126.81;5084271;27;45265;-45
2022/11/08 02:23:51;;;;;;;;;6.00;5.00;;;;;13.90;59.77;100121.53;5078784;27;45279;-42
2022/11/08 02:26:21;;;;;;;;;6.00;5.00;;;;;13.89;59.85;100119.00;5075565;28;46813;-44
2022/11/08 02:28:47;;;;;;;;;7.50;6.50;;;;;13.86;59.43;100102.44;5078881;27;46207;-42
2022/11/08 02:31:15;;;;;;;;;5.50;4.75;;;;;13.86;59.66;100098.94;5071551;27;45254;-44
2022/11/08 02:33:41;;;;;;;;;6.00;5.25;;;;;13.85;59.68;100095.47;5076239;28;45336;-43
2022/11/08 02:36:08;;;;;;;;;5.00;4.00;;;;;13.82;59.44;100085.09;5079598;27;45414;-43
2022/11/08 02:38:38;;;;;;;;;6.00;5.00;;;;;13.80;59.77;100079.06;5080690;27;45265;-44
2022/11/08 02:41:03;;;;;;;;;5.00;4.75;;;;;13.82;59.44;100074.56;5080372;28;45474;-42
2022/11/08 02:43:28;;;;;;;;;7.00;6.00;;;;;13.82;59.46;100069.31;5080875;28;69321;-48
2022/11/08 02:45:56;;;;;;;;;6.50;5.00;;;;;13.83;59.52;100083.34;5080386;27;67834;-43
2022/11/08 02:48:22;;;;;;;;;5.50;5.25;;;;;13.82;59.09;100077.19;5081404;28;45713;-46
2022/11/08 02:50:47;;;;;;;;;6.50;6.00;;;;;13.81;59.37;100074.66;5080290;27;51882;-45
2022/11/08 02:53:13;;;;;;;;;6.00;5.50;;;;;13.79;59.45;100074.75;5081013;28;45418;-42
2022/11/08 02:55:38;;;;;;;;;5.25;3.50;;;;;13.80;59.46;100075.59;5062788;27;46261;-43
2022/11/08 02:58:04;;;;;;;;;4.00;4.00;;;;;13.78;59.62;100066.94;5081349;28;45366;-43
2022/11/08 03:00:29;;;;;;;;;6.50;4.00;;;;;13.78;59.20;100069.56;5079169;27;66354;-43
2022/11/08 03:02:56;;;;;;;;;7.00;3.25;;;;;13.78;59.11;100070.41;5077614;27;45413;-44
2022/11/08 03:05:21;;;;;;;;;5.75;4.00;;;;;13.78;59.48;100061.69;5079725;27;47212;-43
2022/11/08 03:07:47;;;;;;;;;5.25;5.00;;;;;13.81;59.10;100059.75;5074223;28;45323;-42
2022/11/08 03:10:13;;;;;;;;;5.00;4.25;;;;;13.79;58.78;100063.34;5079802;28;45262;-42
2022/11/08 03:12:38;;;;;;;;;3.75;3.00;;;;;13.80;58.57;100078.22;5081408;27;45453;-42
2022/11/08 03:15:05;;;;;;;;;7.50;3.75;;;;;13.79;58.77;100077.38;5079796;28;72329;-42
2022/11/08 03:17:31;;;;;;;;;3.00;3.00;;;;;13.78;58.52;100066.94;5080013;27;45766;-50
2022/11/08 03:19:56;;;;;;;;;5.25;4.00;;;;;13.78;58.45;100074.81;5069777;28;53665;-43
2022/11/08 03:22:22;;;;;;;;;6.75;4.50;;;;;13.78;58.61;100083.56;5079882;27;45221;-43
2022/11/08 03:24:47;;;;;;;;;5.00;4.50;;;;;13.78;58.31;100086.19;5079965;28;45560;-43
2022/11/08 03:27:14;;;;;;;;;5.00;4.00;;;;;13.78;58.24;100091.44;5080026;27;45358;-43
2022/11/08 03:29:39;;;;;;;;;3.75;3.75;;;;;13.79;57.96;100069.50;5079564;27;45581;-41
2022/11/08 03:32:05;;;;;;;;;4.75;4.75;;;;;13.78;58.39;100070.41;5071395;28;45301;-41
2022/11/08 03:34:30;;;;;;;;;4.25;1.00;;;;;13.78;57.95;100065.16;5090609;27;69835;-42
2022/11/08 03:36:55;;;;;;;;;2.50;2.50;;;;;13.76;57.79;100074.91;5077858;27;70505;-42
2022/11/08 03:39:21;;;;;;;;;5.75;4.00;;;;;13.75;57.69;100067.09;5092260;27;46751;-42
2022/11/08 03:41:46;;;;;;;;;5.00;3.75;;;;;13.73;57.93;100069.78;5067389;27;68336;-42
2022/11/08 03:44:11;;;;;;;;;3.50;3.00;;;;;13.71;58.02;100071.66;5079461;28;71380;-41
2022/11/08 03:46:37;;;;;;;;;3.00;3.00;;;;;13.71;57.72;100055.03;5080001;27;70672;-42
2022/11/08 03:49:02;;;;;;;;;4.00;4.00;;;;;13.70;57.94;100062.03;5079722;27;59942;-42
2022/11/08 03:51:27;;;;;;;;;3.75;3.75;;;;;13.71;57.53;100060.28;5080111;27;66506;-42
2022/11/08 03:53:53;;;;;;;;;4.00;4.00;;;;;13.72;57.75;100061.97;5079954;27;54417;-42
2022/11/08 03:56:18;;;;;;;;;4.00;4.00;;;;;13.74;57.44;100063.59;5080267;27;61720;-42
2022/11/08 03:58:43;;;;;;;;;7.00;4.75;;;;;13.76;57.48;100063.53;5078396;27;59674;-42
2022/11/08 04:01:08;;;;;;;;;3.00;2.75;;;;;13.76;57.25;100055.66;5093819;27;65209;-42
2022/11/08 04:03:34;;;;;;;;;4.25;3.00;;;;;13.77;57.46;100052.06;5087707;27;72481;-44
2022/11/08 04:06:00;;;;;;;;;3.00;3.00;;;;;13.77;57.42;100063.44;5080528;28;45210;-44
2022/11/08 04:08:27;;;;;;;;;4.00;3.00;;;;;13.77;57.15;100062.59;5079319;27;45452;-44
2022/11/08 04:10:56;;;;;;;;;4.00;3.00;;;;;13.77;57.26;100052.06;5080513;28;45343;-45
2022/11/08 04:16:06;;;;;;;;;4.00;4.00;;;;;13.79;56.66;100056.34;5077181;28;45675;-44
2022/11/08 04:21:17;;;;;;;;;4.00;2.00;;;;;13.82;57.18;100053.53;5074356;28;45237;-42
2022/11/08 04:23:43;;;;;;;;;5.50;4.00;;;;;13.83;57.04;100059.66;5078735;28;46404;-42
2022/11/08 04:26:10;;;;;;;;;4.00;4.00;;;;;13.85;56.88;100060.44;5077418;28;45245;-43
2022/11/08 04:28:37;;;;;;;;;3.00;3.00;;;;;13.86;56.63;100060.34;5080124;27;45342;-46
2022/11/08 04:31:15;;;;;;;;;4.00;4.00;;;;;13.85;56.21;100070.94;5070335;28;45283;-43
2022/11/08 04:33:41;;;;;;;;;8.00;4.00;;;;;13.84;56.66;100059.56;5090745;27;46971;-44
2022/11/08 04:36:09;;;;;;;;;3.75;3.00;;;;;13.85;56.28;100053.38;5075464;28;45253;-44
2022/11/08 04:38:34;;;;;;;;;3.00;3.00;;;;;13.86;56.13;100049.84;5062410;28;45296;-45
2022/11/08 04:41:02;;;;;;;;;4.75;2.75;;;;;13.88;56.82;100064.66;5075729;28;45372;-44
2022/11/08 04:43:28;;;;;;;;;3.00;3.00;;;;;13.87;56.29;100053.31;5079767;28;46227;-41
2022/11/08 04:46:01;;;;;;;;;4.75;3.75;;;;;13.88;56.56;100054.16;5079507;28;45348;-43
2022/11/08 04:48:27;;;;;;;;;4.00;4.00;;;;;13.84;56.08;100048.19;5074286;27;45468;-43
2022/11/08 04:50:52;;;;;;;;;5.25;3.75;;;;;13.86;56.44;100052.47;5077440;27;45417;-45
2022/11/08 04:53:18;;;;;;;;;6.00;4.00;;;;;13.87;56.34;100045.41;5079593;28;45356;-42
2022/11/08 04:55:43;;;;;;;;;3.00;3.00;;;;;13.86;56.12;100057.72;5078975;27;58297;-42
2022/11/08 04:58:08;;;;;;;;;3.00;3.00;;;;;13.87;56.11;100061.19;5078999;28;60424;-43
2022/11/08 05:00:34;;;;;;;;;7.25;4.00;;;;;13.87;55.92;100050.69;5078772;27;45387;-42
2022/11/08 05:03:01;;;;;;;;;5.00;3.00;;;;;13.89;55.72;100053.22;5074142;28;71413;-43
2022/11/08 05:05:26;;;;;;;;;6.00;5.00;;;;;13.88;55.82;100052.34;5077371;27;45238;-43
2022/11/08 05:07:53;;;;;;;;;5.00;3.00;;;;;13.89;56.01;100055.84;5078777;27;69357;-44
2022/11/08 05:10:18;;;;;;;;;4.50;3.25;;;;;13.89;56.28;100046.19;5078562;28;45395;-46
2022/11/08 05:12:43;;;;;;;;;2.75;2.50;;;;;13.89;55.87;100030.41;5078781;28;68896;-44
2022/11/08 05:15:09;;;;;;;;;4.00;3.75;;;;;13.88;56.02;100025.22;5075270;27;45392;-43
2022/11/08 05:17:34;;;;;;;;;6.25;4.00;;;;;13.89;55.81;100040.06;5078270;28;45367;-43
2022/11/08 05:25:28;;;;;;;;;6.25;4.00;;;;;13.89;55.90;100040.06;5079345;27;45774;-47
2022/11/08 05:27:53;;;;;;;;;3.25;3.25;;;;;13.90;55.95;100050.53;5077030;27;51787;-43
2022/11/08 05:30:19;;;;;;;;;4.00;2.00;;;;;13.89;55.77;100054.06;5077233;27;45210;-43
2022/11/08 05:32:44;;;;;;;;;4.75;3.00;;;;;13.88;55.91;100049.72;5077242;28;65412;-43
2022/11/08 05:35:09;;;;;;;;;5.00;4.00;;;;;13.87;56.05;100055.94;5094132;27;73153;-43
2022/11/08 05:37:35;;;;;;;;;4.00;4.00;;;;;13.86;55.66;100055.09;5076338;27;45316;-44
2022/11/08 05:40:00;;;;;;;;;4.25;4.25;;;;;13.85;55.60;100055.16;5077915;27;64791;-47
2022/11/08 05:42:25;;;;;;;;;6.00;3.00;;;;;13.83;56.00;100049.16;5080936;27;75676;-43
2022/11/08 05:44:51;;;;;;;;;5.00;4.75;;;;;13.83;55.85;100059.66;5081758;27;63852;-45
2022/11/08 05:47:16;;;;;;;;;4.00;3.00;;;;;13.82;55.96;100060.56;5082695;27;45298;-43
2022/11/08 05:49:42;;;;;;;;;3.75;3.00;;;;;13.76;55.28;100058.28;5081670;27;70064;-43
2022/11/08 05:52:07;;;;;;;;;3.50;2.25;;;;;13.76;55.53;100056.50;5082446;27;45481;-42
2022/11/08 05:54:32;;;;;;;;;4.50;3.50;;;;;13.76;55.59;100055.66;5081370;27;72629;-42
2022/11/08 05:56:58;;;;;;;;;3.00;3.00;;;;;13.75;55.68;100046.88;5072775;28;57847;-45
2022/11/08 05:59:23;;;;;;;;;3.50;2.00;;;;;13.74;55.57;100050.47;5081277;27;45560;-46
2022/11/08 06:01:48;;;;;;;;;5.75;4.00;;;;;13.76;55.53;100048.59;5079792;27;68701;-43
2022/11/08 06:04:13;;;;;;;;;3.00;3.00;;;;;13.76;55.44;100048.59;5074385;27;58551;-43
2022/11/08 06:06:39;;;;;;;;;4.25;3.00;;;;;13.79;55.60;100048.44;5080602;27;54876;-44
2022/11/08 06:09:04;;;;;;;;;3.75;3.25;;;;;13.80;55.78;100042.25;5081494;27;66309;-48
2022/11/08 06:11:29;;;;;;;;;3.75;2.25;;;;;13.82;55.38;100053.53;5081539;27;63691;-43
2022/11/08 06:13:55;;;;;;;;;3.50;3.00;;;;;13.79;55.34;100043.19;5078476;28;70118;-43
2022/11/08 06:16:23;;;;;;;;;3.00;3.00;;;;;13.76;55.60;100038.09;5080926;27;45669;-43
2022/11/08 06:18:49;;;;;;;;;5.00;3.00;;;;;13.75;55.78;100048.66;5080625;28;45305;-43
2022/11/08 06:21:17;;;;;;;;;3.00;3.00;;;;;13.73;55.39;100048.75;5080210;27;45256;-43
2022/11/08 06:23:42;;;;;;;;;6.00;4.00;;;;;13.75;55.31;100046.03;5081096;27;45397;-42
2022/11/08 06:26:08;;;;;;;;;4.50;3.00;;;;;13.74;55.32;100052.22;5079083;28;45615;-41
2022/11/08 06:28:34;;;;;;;;;4.00;3.00;;;;;13.74;55.21;100050.47;5068291;27;45873;-41
2022/11/08 06:31:02;;;;;;;;;3.75;3.75;;;;;13.74;55.37;100042.56;5073805;27;46394;-41
2022/11/08 06:33:27;;;;;;;;;5.00;4.00;;;;;13.74;55.81;100041.69;5079918;27;45168;-40
2022/11/08 06:35:53;;;;;;;;;3.00;3.00;;;;;13.74;55.62;100036.44;5081478;28;45271;-43
2022/11/08 06:38:18;;;;;;;;;6.00;3.75;;;;;13.75;55.82;100035.53;5078332;28;56884;-43
2022/11/08 06:40:44;;;;;;;;;4.00;3.00;;;;;13.76;55.57;100039.88;5081030;28;64247;-42
2022/11/08 06:43:10;;;;;;;;;4.25;3.00;;;;;13.76;55.56;100047.75;5080873;27;59216;-41
2022/11/08 06:45:36;;;;;;;;;4.75;3.75;;;;;13.78;55.40;100059.88;5080674;28;45312;-42
2022/11/08 06:48:03;;;;;;;;;5.00;4.00;;;;;13.79;55.55;100063.34;5078773;27;45262;-42
2022/11/08 06:50:30;;;;;;;;;3.00;2.00;;;;;13.80;55.56;100081.69;5080821;27;45450;-43
2022/11/08 06:53:03;;;;;;;;;5.00;3.00;;;;;13.79;55.51;100087.91;5081051;27;45797;-41
2022/11/08 06:55:29;;;;;;;;;6.00;3.25;;;;;13.76;55.01;100081.94;5080503;27;45498;-40
2022/11/08 06:57:55;;;;;;;;;2.25;2.25;;;;;13.75;55.35;100078.44;5094530;27;45496;-41
2022/11/08 07:00:21;;;;;;;;;6.00;4.25;;;;;13.74;55.37;100082.00;5078884;28;52200;-41
2022/11/08 07:03:00;;;;;;;;;4.00;3.25;;;;;13.72;55.34;100064.59;5076877;28;45536;-42
2022/11/08 07:05:26;;;;;;;;;4.75;4.25;;;;;13.71;55.29;100081.31;5070334;27;45336;-43
2022/11/08 07:07:52;;;;;;;;;5.50;4.50;;;;;13.70;55.58;100085.72;5081452;27;45417;-41
2022/11/08 07:10:19;;;;;;;;;3.00;2.00;;;;;13.70;55.52;100083.06;5079821;28;45934;-40
2022/11/08 07:12:45;;;;;;;;;5.50;5.25;;;;;13.70;55.21;100090.13;5081240;27;45405;-43
2022/11/08 07:15:10;;;;;;;;;5.75;5.00;;;;;13.69;55.38;100086.66;5080004;28;45379;-43
2022/11/08 07:17:36;;;;;;;;;4.50;4.00;;;;;13.72;55.51;100083.00;5080452;27;72054;-41
2022/11/08 07:20:01;;;;;;;;;5.25;5.00;;;;;13.73;55.69;100084.72;5067880;28;46198;-44
2022/11/08 07:22:26;;;;;;;;;4.75;4.75;;;;;13.76;55.42;100093.31;5085101;27;64684;-43
2022/11/08 07:24:51;;;;;;;;;6.25;4.25;;;;;13.78;55.53;100098.50;5082356;27;63759;-46
2022/11/08 07:27:17;;;;;;;;;4.75;4.75;;;;;13.77;55.66;100107.28;5080754;27;60670;-45
2022/11/08 07:29:42;;;;;;;;;5.75;5.00;;;;;13.79;55.60;100108.94;5078280;27;76522;-41
2022/11/08 07:32:07;;;;;;;;;3.50;3.50;;;;;13.80;55.53;100076.44;5071380;28;67113;-42
2022/11/08 07:34:33;;;;;;;;;9.00;5.00;;;;;13.80;55.45;100081.69;5077348;27;66817;-44
2022/11/08 07:36:58;;;;;;;;;3.75;3.00;;;;;13.82;55.07;100092.97;5076325;27;45354;-44
2022/11/08 07:39:23;;;;;;;;;5.75;4.75;;;;;13.84;55.41;100099.00;5069296;27;45292;-42
2022/11/08 07:41:49;;;;;;;;;4.00;3.00;;;;;13.86;55.11;100107.69;5079893;27;61899;-43
2022/11/08 07:44:14;;;;;;;;;7.50;4.00;;;;;13.89;55.29;100100.56;5077706;27;62676;-45
2022/11/08 07:46:39;;;;;;;;;5.25;4.00;;;;;13.92;55.28;100101.28;5080104;27;49713;-46
2022/11/08 07:49:05;;;;;;;;;5.50;4.50;;;;;13.97;55.51;100106.28;5079117;27;74340;-43
2022/11/08 07:51:30;;;;;;;;;5.50;4.00;;;;;14.01;55.42;100105.22;5086053;27;66766;-44
2022/11/08 07:53:55;;;;;;;;;6.25;4.25;;;;;14.02;55.24;100096.38;5082927;27;69866;-43
2022/11/08 07:56:21;;;;;;;;;3.00;3.00;;;;;14.05;55.02;100096.22;5074099;27;67592;-41
2022/11/08 07:58:46;;;;;;;;;6.00;4.00;;;;;14.08;54.88;100097.81;5078369;28;75795;-42
2022/11/08 08:01:11;;;;;;;;;4.00;4.00;;;;;14.10;55.38;100090.72;5080485;27;45407;-49
2022/11/08 08:03:37;;;;;;;;;3.00;2.75;;;;;14.11;54.98;100087.16;5082857;27;67290;-46
2022/11/08 08:06:02;;;;;;;;;4.25;3.50;;;;;14.18;55.15;100094.66;5078248;27;45387;-47
2022/11/08 08:08:28;;;;;;;;;3.50;3.00;;;;;14.21;54.90;100099.75;5079791;27;58484;-42
2022/11/08 08:11:00;;;;;;;;;5.50;3.00;;;;;14.24;55.20;100094.31;5069433;28;45762;-44
2022/11/08 08:13:26;;;;;;;;;7.00;4.00;;;;;14.29;55.13;100096.72;5068481;28;45261;-42
2022/11/08 08:15:52;;;;;;;;;3.50;3.25;;;;;14.30;55.21;100076.50;5080556;27;45533;-43
2022/11/08 08:18:19;;;;;;;;;4.25;4.00;;;;;14.31;55.11;100078.22;5080000;27;47489;-46
2022/11/08 08:20:45;;;;;;;;;7.00;4.50;;;;;14.33;54.97;100085.09;5069576;28;45801;-45
2022/11/08 08:23:10;;;;;;;;;6.00;4.00;;;;;14.37;54.78;100080.53;5077160;28;45231;-42
2022/11/08 08:25:36;;;;;;;;;4.75;3.25;;;;;14.38;54.86;100067.28;5079347;27;69586;-41
2022/11/08 08:28:01;;;;;;;;;6.25;4.00;;;;;14.42;54.81;100071.44;5078105;27;46357;-44
2022/11/08 08:30:28;;;;;;;;;6.00;4.00;;;;;14.44;54.92;100066.09;5071592;28;45224;-45
2022/11/08 08:33:07;;;;;;;;;3.75;3.50;;;;;14.47;54.84;100073.84;5077188;28;45281;-46
2022/11/08 08:35:36;;;;;;;;;4.75;4.00;;;;;14.52;54.46;100077.06;5078576;28;45441;-47
2022/11/08 08:38:01;;;;;;;;;3.00;3.00;;;;;14.52;54.88;100081.47;5075694;28;45403;-44
2022/11/08 08:40:27;;;;;;;;;5.25;2.00;;;;;14.54;55.18;100072.56;5079940;27;45217;-45
2022/11/08 08:42:52;;;;;;;;;5.25;4.25;;;;;14.59;55.04;100075.00;5079252;28;45378;-44
2022/11/08 08:45:18;;;;;;;;;5.50;3.00;;;;;14.63;55.43;100097.59;5078783;27;45294;-46
2022/11/08 08:47:43;;;;;;;;;4.50;2.75;;;;;14.68;54.72;100106.09;5072385;27;47278;-46
2022/11/08 08:50:09;;;;;;;;;7.25;3.00;;;;;14.72;55.14;100110.25;5088905;27;45276;-44
2022/11/08 08:52:34;;;;;;;;;5.25;4.00;;;;;14.79;54.87;100110.78;5077328;28;45476;-48
2022/11/08 08:55:00;;;;;;;;;6.00;3.75;;;;;14.86;55.10;100101.59;5079207;28;60141;-47
2022/11/08 08:57:25;;;;;;;;;5.00;5.00;;;;;14.90;54.61;100091.75;5081397;27;70899;-46
2022/11/08 08:59:50;;;;;;;;;5.25;3.50;;;;;14.94;54.71;100101.16;5087589;27;69375;-47
2022/11/08 09:02:16;;;;;;;;;4.00;3.50;;;;;14.99;54.90;100109.66;5076546;28;67309;-43
2022/11/08 09:04:41;;;;;;;;;5.75;3.50;;;;;15.04;54.84;100104.16;5075673;28;59059;-44
2022/11/08 09:07:06;;;;;;;;;2.75;2.75;;;;;15.07;54.49;100106.59;5079156;27;54317;-43
2022/11/08 09:09:33;;;;;;;;;6.00;3.75;;;;;15.10;54.65;100106.44;5083194;27;45272;-43
2022/11/08 09:11:58;;;;;;;;;3.50;3.50;;;;;15.15;54.91;100102.59;5083223;27;45277;-41
2022/11/08 09:14:24;;;;;;;;;3.75;3.00;;;;;15.21;55.10;100104.06;5080865;28;45391;-42
2022/11/08 09:16:49;;;;;;;;;7.00;2.00;;;;;15.27;55.03;100103.69;5080485;27;46064;-42
2022/11/08 09:19:14;;;;;;;;;5.25;4.00;;;;;15.32;54.92;100104.28;5074761;27;64973;-44
2022/11/08 09:21:39;;;;;;;;;2.75;2.75;;;;;15.37;54.85;100102.25;5077261;27;59802;-42
2022/11/08 09:24:05;;;;;;;;;5.50;4.50;;;;;15.44;54.71;100104.53;5094087;27;69531;-41
2022/11/08 09:26:30;;;;;;;;;4.00;4.00;;;;;15.52;54.82;100113.69;5081338;28;46423;-45
2022/11/08 09:28:56;;;;;;;;;4.00;3.25;;;;;15.59;54.75;100116.00;5081828;27;67437;-43
2022/11/08 09:31:21;;;;;;;;;3.25;3.25;;;;;15.66;55.00;100120.81;5082433;27;49965;-48
2022/11/08 09:33:48;;;;;;;;;4.00;4.00;;;;;15.70;54.65;100119.69;5079639;28;63840;-47
2022/11/08 09:36:14;;;;;;;;;6.00;5.00;;;;;15.73;54.68;100118.66;5077828;27;47366;-47
2022/11/08 09:38:40;;;;;;;;;3.25;3.00;;;;;15.77;54.55;100117.56;5066947;27;45304;-44
2022/11/08 09:41:24;;;;;;;;;2.50;2.00;;;;;15.79;54.61;100120.97;5079399;27;45324;-44
2022/11/08 09:44:38;;;;;;;;;4.75;4.25;;;;;15.81;54.54;100107.69;5082213;28;45242;-43
2022/11/08 09:47:12;;;;;;;;;3.00;3.00;;;;;15.85;54.40;100106.59;5071028;27;46188;-43
2022/11/08 09:49:45;;;;;;;;;4.00;3.75;;;;;15.85;54.81;100091.59;5080659;28;45386;-43
2022/11/08 09:52:17;;;;;;;;;5.00;3.25;;;;;15.90;54.68;100101.88;5080900;28;45515;-43
2022/11/08 09:54:45;;;;;;;;;4.00;4.00;;;;;15.92;54.49;100106.13;5079684;28;45632;-43
2022/11/08 09:57:19;;;;;;;;;6.00;4.00;;;;;15.95;54.26;100099.81;5080226;28;70765;-43
2022/11/08 09:59:51;;;;;;;;;3.50;3.50;;;;;15.98;54.72;100102.28;5081937;27;46714;-42
2022/11/08 10:02:21;;;;;;;;;5.50;3.00;;;;;16.04;54.59;100099.28;5081100;27;45382;-42
2022/11/08 10:04:54;;;;;;;;;4.75;4.75;;;;;16.07;54.58;100100.88;5080996;27;45434;-43
2022/11/08 10:07:32;;;;;;;;;5.25;3.25;;;;;16.11;54.42;100100.59;5080278;27;46456;-42
2022/11/08 10:10:05;;;;;;;;;4.00;4.00;;;;;16.18;54.85;100101.06;5081694;27;45732;-42
2022/11/08 10:12:57;;;;;;;;;3.75;3.00;;;;;16.25;54.69;100099.75;5071160;28;45294;-43
2022/11/08 10:16:00;;;;;;;;;3.25;3.25;;;;;16.31;54.40;100095.91;5081909;27;45326;-44
2022/11/08 10:18:48;;;;;;;;;5.75;3.00;;;;;16.37;54.53;100105.25;5079578;27;46390;-43
2022/11/08 10:21:25;;;;;;;;;3.75;2.50;;;;;16.40;54.71;100110.34;5072198;27;45363;-47
2022/11/08 10:24:03;;;;;;;;;4.75;3.25;;;;;16.41;54.45;100101.47;5081124;27;45464;-43
2022/11/08 10:26:41;;;;;;;;;4.00;3.00;;;;;16.47;54.73;100103.72;5080509;27;45448;-43
2022/11/08 10:29:10;;;;;;;;;5.50;4.50;;;;;16.52;54.91;100120.16;5073842;28;47199;-42
2022/11/08 10:31:38;;;;;;;;;3.75;3.75;;;;;16.59;54.64;100116.19;5079040;27;45609;-43
2022/11/08 10:34:12;;;;;;;;;3.25;2.00;;;;;16.65;54.46;100107.03;5081396;28;60153;-44
2022/11/08 10:36:41;;;;;;;;;7.50;4.00;;;;;16.70;54.56;100103.16;5079271;28;45224;-43
2022/11/08 10:39:07;;;;;;;;;5.00;4.00;;;;;16.76;54.81;100099.25;5067177;28;45351;-44
2022/11/08 10:41:40;;;;;;;;;4.75;2.00;;;;;16.82;54.42;100104.19;5069996;28;45351;-44
2022/11/08 10:44:12;;;;;;;;;3.00;3.00;;;;;16.87;54.48;100091.56;5080225;28;45377;-44
2022/11/08 10:46:48;;;;;;;;;5.00;3.00;;;;;16.95;54.58;100100.78;5075575;28;45490;-45
2022/11/08 10:49:14;;;;;;;;;5.00;3.75;;;;;17.00;54.79;100086.31;5080996;28;45425;-42
2022/11/08 10:51:39;;;;;;;;;5.00;4.00;;;;;17.06;55.10;100093.00;5080358;27;45470;-45
2022/11/08 10:54:04;;;;;;;;;8.50;6.00;;;;;17.09;55.14;100082.25;5080178;28;45351;-43
2022/11/08 10:56:30;;;;;;;;;5.00;4.25;;;;;17.14;54.89;100097.78;5080905;28;45430;-43
2022/11/08 10:58:55;;;;;;;;;5.50;4.75;;;;;17.18;55.09;100097.50;5093874;27;73820;-43
2022/11/08 11:01:24;;;;;;;;;4.00;2.75;;;;;17.22;55.31;100082.28;5081607;28;46952;-46
2022/11/08 11:03:51;;;;;;;;;5.75;3.75;;;;;17.26;55.08;100091.69;5072770;28;45429;-45
2022/11/08 11:06:31;;;;;;;;;4.25;3.00;;;;;17.29;54.72;100080.09;5079854;28;45414;-45
2022/11/08 11:08:59;;;;;;;;;4.50;4.50;;;;;17.32;55.08;100072.81;5080875;27;45529;-46
2022/11/08 11:11:44;;;;;;;;;5.00;4.00;;;;;17.37;54.91;100068.06;5081607;27;45342;-48
2022/11/08 11:14:15;;;;;;;;;7.75;5.75;;;;;17.40;54.77;100070.47;5070028;27;54719;-44
2022/11/08 11:17:00;;;;;;;;;5.75;4.00;;;;;17.46;54.86;100077.19;5080342;27;45580;-42
2022/11/08 11:19:27;;;;;;;;;5.75;3.25;;;;;17.48;54.98;100072.63;5079161;27;47191;-48
2022/11/08 11:22:01;;;;;;;;;4.25;3.25;;;;;17.52;54.92;100075.94;5062734;27;45778;-44
2022/11/08 11:24:26;;;;;;;;;5.25;3.00;;;;;17.53;54.83;100078.47;5086594;27;45415;-46
2022/11/08 11:27:31;;;;;;;;;3.25;2.00;;;;;17.55;54.79;100063.34;5077354;28;45533;-49
2022/11/08 11:30:32;;;;;;;;;6.00;3.00;;;;;17.58;54.61;100056.97;5077415;27;47431;-48
2022/11/08 11:33:05;;;;;;;;;5.75;4.00;;;;;17.59;54.80;100069.28;5065066;27;45565;-43
2022/11/08 11:35:39;;;;;;;;;5.75;4.25;;;;;17.61;54.80;100062.91;5088381;27;45331;-45
2022/11/08 11:38:09;;;;;;;;;5.75;4.00;;;;;17.66;54.78;100070.56;5049792;28;45651;-42
2022/11/08 11:40:42;;;;;;;;;6.25;4.00;;;;;17.69;54.92;100074.78;5079736;28;45601;-43
2022/11/08 11:43:15;;;;;;;;;8.25;6.50;;;;;17.71;54.64;100081.69;5079156;27;45782;-43
2022/11/08 11:45:59;;;;;;;;;7.00;5.00;;;;;17.73;54.78;100077.13;5078125;28;45468;-45
2022/11/08 11:48:28;;;;;;;;;4.50;3.25;;;;;17.74;54.85;100080.63;5071244;28;45371;-44